Time;durP1;ratioP1;P1;durP2;ratioP2;P2;SDS_P1;SDS_P2;PMS_P1;PMS_P2;Temp;Humidity;BMP_temperature;BMP_pressure;BME280_temperature;BME280_humidity;BME280_pressure;Samples;Min_cycle;Max_cycle;Signal;HPM_P1;HPM_P2
2023/12/09 00:02:04;;;;;;;21.70;12.40;;;;;;;5.97;100.00;97968.41;5072176;28;20230;-77
2023/12/09 00:04:31;;;;;;;20.73;13.00;;;;;;;5.96;100.00;97967.56;5074986;28;20207;-77
2023/12/09 00:06:58;;;;;;;18.53;12.10;;;;;;;5.94;100.00;97965.97;5075666;28;20211;-77
2023/12/09 00:09:24;;;;;;;19.10;12.13;;;;;;;5.92;100.00;97965.22;5075421;28;20564;-77
2023/12/09 00:11:50;;;;;;;18.40;12.13;;;;;;;5.88;100.00;97959.28;5076039;28;20238;-79
2023/12/09 00:14:17;;;;;;;22.57;12.10;;;;;;;5.84;100.00;97968.22;5075118;28;20234;-77
2023/12/09 00:16:45;;;;;;;19.23;12.27;;;;;;;5.82;100.00;97977.09;5075283;28;20227;-77
2023/12/09 00:19:13;;;;;;;20.30;11.87;;;;;;;5.80;100.00;97973.72;5075058;28;20302;-77
2023/12/09 00:21:39;;;;;;;21.40;12.80;;;;;;;5.79;100.00;97969.34;5075292;28;20234;-77
2023/12/09 00:24:06;;;;;;;21.83;12.77;;;;;;;5.78;100.00;97965.03;5075234;28;20210;-77
2023/12/09 00:26:32;;;;;;;20.80;12.60;;;;;;;5.78;100.00;97963.28;5075461;28;20203;-77
2023/12/09 00:28:59;;;;;;;20.93;12.03;;;;;;;5.81;100.00;97968.38;5075373;28;20203;-77
2023/12/09 00:31:26;;;;;;;20.10;12.37;;;;;;;5.79;100.00;97979.84;5074837;28;20237;-77
2023/12/09 00:33:54;;;;;;;23.73;13.93;;;;;;;5.77;100.00;97966.84;5074802;28;20206;-77
2023/12/09 00:36:20;;;;;;;19.37;12.80;;;;;;;5.78;100.00;97976.38;5074725;28;20231;-77
2023/12/09 00:38:47;;;;;;;19.93;12.33;;;;;;;5.74;100.00;97974.84;5074765;28;20208;-77
2023/12/09 00:41:13;;;;;;;19.97;12.77;;;;;;;5.73;100.00;97975.78;5074694;28;20234;-77
2023/12/09 00:43:40;;;;;;;22.73;13.57;;;;;;;5.75;100.00;97968.66;5074781;28;20210;-77
2023/12/09 00:46:07;;;;;;;20.33;12.00;;;;;;;5.76;100.00;97970.38;5074322;28;20203;-78
2023/12/09 00:48:33;;;;;;;21.43;13.23;;;;;;;5.79;100.00;97972.84;5075066;28;20214;-78
2023/12/09 00:51:01;;;;;;;21.37;13.53;;;;;;;5.82;100.00;97970.09;5074804;28;20210;-79
2023/12/09 00:53:28;;;;;;;20.23;12.10;;;;;;;5.87;100.00;97973.31;5074959;28;20203;-80
2023/12/09 00:55:54;;;;;;;19.70;12.93;;;;;;;5.85;100.00;97969.91;5074409;28;20239;-78
2023/12/09 00:58:21;;;;;;;20.53;11.97;;;;;;;5.85;100.00;97969.91;5074579;28;20227;-79
2023/12/09 01:00:47;;;;;;;18.40;11.83;;;;;;;5.84;100.00;97972.63;5074229;28;20213;-79
2023/12/09 01:03:14;;;;;;;19.60;12.30;;;;;;;5.80;100.00;97974.56;5073821;28;20231;-80
2023/12/09 01:05:40;;;;;;;19.27;12.23;;;;;;;5.81;100.00;97984.13;5073673;28;20207;-78
2023/12/09 01:08:08;;;;;;;20.80;12.67;;;;;;;5.82;100.00;97985.84;5074268;28;20591;-78
2023/12/09 01:10:34;;;;;;;19.03;12.00;;;;;;;5.84;100.00;97983.09;5074478;28;20207;-77
2023/12/09 01:13:01;;;;;;;19.30;12.73;;;;;;;5.83;100.00;97989.28;5073963;28;20238;-78
2023/12/09 01:15:27;;;;;;;20.20;13.03;;;;;;;5.83;100.00;97992.75;5073869;28;20217;-77
2023/12/09 01:17:54;;;;;;;18.83;12.50;;;;;;;5.80;100.00;97992.91;5074238;28;20218;-78
2023/12/09 01:20:20;;;;;;;21.10;13.03;;;;;;;5.84;100.00;97998.84;5074350;28;20217;-78
2023/12/09 01:22:47;;;;;;;19.00;12.00;;;;;;;5.81;100.00;97999.84;5073938;28;20236;-77
2023/12/09 01:25:14;;;;;;;18.27;12.00;;;;;;;5.84;100.00;98001.47;5074006;28;20296;-78
2023/12/09 01:27:41;;;;;;;20.27;12.30;;;;;;;5.88;100.00;98006.50;5074301;28;20581;-77
2023/12/09 01:30:08;;;;;;;19.53;12.30;;;;;;;5.87;100.00;98015.25;5074224;28;20211;-77
2023/12/09 01:32:35;;;;;;;20.83;12.80;;;;;;;5.82;100.00;98011.19;5073750;28;20257;-78
2023/12/09 01:35:02;;;;;;;15.93;10.97;;;;;;;5.80;100.00;98019.13;5073146;28;20207;-78
2023/12/09 01:37:28;;;;;;;19.53;11.73;;;;;;;5.75;100.00;98015.88;5073908;28;20787;-78
2023/12/09 01:39:55;;;;;;;17.07;12.10;;;;;;;5.71;100.00;98016.97;5073963;28;20237;-78
2023/12/09 01:42:23;;;;;;;21.77;12.23;;;;;;;5.67;100.00;98028.53;5074036;28;20241;-78
2023/12/09 01:44:49;;;;;;;17.63;12.23;;;;;;;5.66;100.00;98026.84;5073372;28;20207;-78
2023/12/09 01:47:16;;;;;;;20.63;12.40;;;;;;;5.66;100.00;98029.47;5073711;28;20214;-77
2023/12/09 01:49:43;;;;;;;20.27;12.53;;;;;;;5.67;100.00;98028.53;5073881;28;20677;-77
2023/12/09 01:52:09;;;;;;;20.43;13.23;;;;;;;5.71;100.00;98037.94;5073992;28;20610;-77
2023/12/09 01:54:36;;;;;;;22.70;12.60;;;;;;;5.74;100.00;98027.28;5072877;28;20214;-77
2023/12/09 01:57:03;;;;;;;19.23;12.50;;;;;;;5.77;100.00;98035.00;5073581;28;20235;-79
2023/12/09 01:59:32;;;;;;;21.17;12.63;;;;;;;5.76;100.00;98033.31;5074851;28;20595;-78
2023/12/09 02:01:59;;;;;;;18.80;11.60;;;;;;;5.74;100.00;98032.53;5076032;28;20231;-78
2023/12/09 02:04:25;;;;;;;18.60;11.20;;;;;;;5.75;100.00;98036.84;5075121;28;20202;-78
2023/12/09 02:06:52;;;;;;;22.93;12.70;;;;;;;5.76;100.00;98032.47;5074683;28;20581;-79
2023/12/09 02:09:18;;;;;;;16.50;11.50;;;;;;;5.76;100.00;98033.31;5074573;28;20214;-78
2023/12/09 02:11:53;;;;;;;22.87;12.20;;;;;;;5.76;100.00;98035.94;5074146;28;20326;-79
2023/12/09 02:14:27;;;;;;;21.50;11.63;;;;;;;5.76;100.00;98035.94;5073515;28;20570;-79
2023/12/09 02:17:01;;;;;;;22.70;12.67;;;;;;;5.77;100.00;98035.00;5074333;28;20227;-79
2023/12/09 02:19:28;;;;;;;17.23;11.70;;;;;;;5.76;100.00;98035.94;5074639;28;20206;-78
2023/12/09 02:22:02;;;;;;;21.43;12.00;;;;;;;5.79;100.00;98038.38;5074487;28;20223;-79
2023/12/09 02:24:31;;;;;;;20.77;11.83;;;;;;;5.78;100.00;98041.09;5073479;28;20250;-78
2023/12/09 02:27:03;;;;;;;19.30;11.63;;;;;;;5.74;100.00;98037.78;5073910;28;20211;-79
2023/12/09 02:29:34;;;;;;;20.53;11.70;;;;;;;5.76;100.00;98022.84;5074068;28;20257;-79
2023/12/09 02:32:05;;;;;;;19.07;11.30;;;;;;;5.73;100.00;98017.72;5073926;28;20257;-78
2023/12/09 02:34:33;;;;;;;20.50;12.13;;;;;;;5.72;100.00;98021.28;5073521;28;20211;-78
2023/12/09 02:37:00;;;;;;;17.10;11.03;;;;;;;5.71;100.00;98026.59;5073715;28;20231;-78
2023/12/09 02:39:26;;;;;;;18.50;11.40;;;;;;;5.70;100.00;98017.91;5073874;28;20209;-79
2023/12/09 02:41:57;;;;;;;18.27;10.83;;;;;;;5.75;100.00;98022.91;5073957;28;20230;-78
2023/12/09 02:44:23;;;;;;;17.00;11.07;;;;;;;5.78;100.00;98026.22;5072810;28;20207;-78
2023/12/09 02:46:55;;;;;;;19.67;11.77;;;;;;;5.73;100.00;98017.72;5073734;28;20233;-78
2023/12/09 02:49:21;;;;;;;16.27;11.10;;;;;;;5.78;100.00;98010.47;5074012;28;20213;-79
2023/12/09 02:51:48;;;;;;;19.47;11.90;;;;;;;5.79;100.00;98012.16;5073430;28;20231;-79
2023/12/09 02:54:15;;;;;;;14.50;10.60;;;;;;;5.76;100.00;98012.34;5073021;28;20206;-78
2023/12/09 02:56:41;;;;;;;15.83;10.57;;;;;;;5.77;100.00;98010.56;5073974;28;20240;-79
2023/12/09 02:59:09;;;;;;;20.30;11.70;;;;;;;5.78;100.00;98002.63;5074360;28;20212;-79
2023/12/09 03:01:35;;;;;;;18.03;11.50;;;;;;;5.74;100.00;97990.56;5074085;28;20244;-78
2023/12/09 03:04:02;;;;;;;14.83;10.87;;;;;;;5.71;100.00;97988.13;5073624;28;20241;-79
2023/12/09 03:06:29;;;;;;;16.13;11.00;;;;;;;5.65;100.00;97983.19;5073152;28;20207;-79
2023/12/09 03:08:55;;;;;;;15.60;11.13;;;;;;;5.60;100.00;97987.84;5073667;28;20268;-78
2023/12/09 03:11:21;;;;;;;15.13;10.67;;;;;;;5.57;100.00;97981.91;5073237;28;20242;-79
2023/12/09 03:13:48;;;;;;;17.53;10.67;;;;;;;5.48;100.00;97984.97;5073603;28;20677;-78
2023/12/09 03:16:16;;;;;;;15.83;10.50;;;;;;;5.44;100.00;97980.84;5072931;28;20628;-79
2023/12/09 03:18:42;;;;;;;18.13;10.90;;;;;;;5.42;100.00;97969.56;5073630;28;20207;-79
2023/12/09 03:21:14;;;;;;;17.20;10.50;;;;;;;5.41;100.00;97973.13;5073176;28;20234;-79
2023/12/09 03:23:44;;;;;;;16.67;9.80;;;;;;;5.35;100.00;97969.06;5073562;28;20211;-79
2023/12/09 03:26:15;;;;;;;15.87;10.27;;;;;;;5.31;100.00;97970.13;5072833;28;20313;-79
2023/12/09 03:28:42;;;;;;;17.03;11.07;;;;;;;5.29;100.00;97958.88;5072678;28;20211;-77
2023/12/09 03:31:09;;;;;;;16.50;10.67;;;;;;;5.25;100.00;97952.09;5071660;28;20272;-78
2023/12/09 03:33:37;;;;;;;17.13;10.67;;;;;;;5.26;100.00;97956.41;5071974;28;20237;-78
2023/12/09 03:36:04;;;;;;;17.70;11.63;;;;;;;5.31;100.00;97961.44;5071465;28;20232;-78
2023/12/09 03:38:31;;;;;;;18.93;11.33;;;;;;;5.31;100.00;97954.41;5071896;28;20229;-78
2023/12/09 03:40:57;;;;;;;18.57;11.07;;;;;;;5.31;100.00;97957.03;5072108;28;20237;-78
2023/12/09 03:43:24;;;;;;;16.70;10.57;;;;;;;5.29;100.00;97948.41;5072314;28;20581;-78
2023/12/09 03:45:50;;;;;;;17.90;10.87;;;;;;;5.24;100.00;97947.78;5071678;28;20216;-78
2023/12/09 03:48:17;;;;;;;14.93;9.87;;;;;;;5.13;100.00;97939.63;5072205;28;20203;-78
2023/12/09 03:50:45;;;;;;;14.57;9.63;;;;;;;4.97;100.00;97943.94;5072007;28;20399;-78
2023/12/09 03:53:11;;;;;;;15.53;9.47;;;;;;;4.78;100.00;97956.25;5071741;28;20213;-77
2023/12/09 03:55:38;;;;;;;13.93;9.40;;;;;;;4.68;100.00;97952.38;5071347;28;20224;-77
2023/12/09 03:58:06;;;;;;;13.77;9.17;;;;;;;4.60;100.00;97959.78;5071666;28;20237;-78
2023/12/09 04:00:32;;;;;;;12.50;8.33;;;;;;;4.45;100.00;97967.50;5071422;28;20203;-77
2023/12/09 04:02:59;;;;;;;11.83;7.73;;;;;;;4.37;100.00;97962.63;5071092;28;20736;-77
2023/12/09 04:05:25;;;;;;;14.27;8.63;;;;;;;4.27;100.00;97963.16;5071468;28;20209;-77
2023/12/09 04:07:53;;;;;;;13.07;8.03;;;;;;;4.17;100.00;97960.09;5072035;28;20252;-78
2023/12/09 04:10:20;;;;;;;12.00;8.07;;;;;;;4.12;100.00;97964.72;5071761;28;20217;-78
2023/12/09 04:12:46;;;;;;;12.80;8.37;;;;;;;4.13;100.00;97955.94;5071182;28;20229;-77
2023/12/09 04:15:13;;;;;;;11.80;8.03;;;;;;;4.13;100.00;97957.69;5071021;28;20221;-77
2023/12/09 04:17:40;;;;;;;12.70;7.77;;;;;;;4.08;100.00;97952.69;5071761;28;20238;-77
2023/12/09 04:20:08;;;;;;;9.97;7.70;;;;;;;4.04;100.00;97948.50;5071688;28;20243;-77
2023/12/09 04:22:37;;;;;;;13.07;7.53;;;;;;;3.99;100.00;97958.34;5071689;28;20704;-77
2023/12/09 04:25:06;;;;;;;9.97;7.33;;;;;;;3.95;100.00;97972.47;5070966;28;20218;-77
2023/12/09 04:27:32;;;;;;;12.33;7.43;;;;;;;3.97;100.00;97975.84;5071806;28;20201;-77
2023/12/09 04:29:59;;;;;;;11.10;7.33;;;;;;;4.02;100.00;97981.72;5071437;28;20213;-77
2023/12/09 04:32:30;;;;;;;14.63;8.97;;;;;;;4.10;100.00;97971.75;5071434;28;20234;-77
2023/12/09 04:34:56;;;;;;;16.10;9.67;;;;;;;4.23;100.00;97983.34;5071577;28;20592;-77
2023/12/09 04:37:23;;;;;;;16.90;9.83;;;;;;;4.37;100.00;97980.94;5071417;28;20328;-77
2023/12/09 04:39:49;;;;;;;14.93;10.03;;;;;;;4.51;100.00;97978.53;5071281;28;20214;-77
2023/12/09 04:42:18;;;;;;;18.97;11.13;;;;;;;4.65;100.00;97975.25;5071032;28;20236;-77
2023/12/09 04:44:44;;;;;;;18.33;10.77;;;;;;;4.74;100.00;97975.66;5070757;28;20228;-77
2023/12/09 04:47:10;;;;;;;16.90;10.57;;;;;;;4.78;100.00;97977.22;5071528;28;20211;-77
2023/12/09 04:49:37;;;;;;;19.67;9.93;;;;;;;4.83;100.00;97966.50;5074170;28;20215;-77
2023/12/09 04:52:04;;;;;;;16.17;9.67;;;;;;;4.83;100.00;97966.50;5074977;28;20233;-77
2023/12/09 04:54:31;;;;;;;16.00;8.63;;;;;;;4.79;100.00;97972.81;5074088;28;20266;-78
2023/12/09 04:56:58;;;;;;;15.40;8.60;;;;;;;4.80;100.00;97983.22;5074631;28;20231;-77
2023/12/09 04:59:26;;;;;;;14.57;9.67;;;;;;;4.77;100.00;97972.88;5074843;28;20214;-77
2023/12/09 05:01:52;;;;;;;13.33;8.97;;;;;;;4.78;100.00;97971.97;5074753;28;20231;-77
2023/12/09 05:04:19;;;;;;;16.83;9.93;;;;;;;4.77;100.00;97966.81;5073745;28;20215;-77
2023/12/09 05:06:46;;;;;;;15.43;9.47;;;;;;;4.79;100.00;97962.31;5074693;28;20209;-78
2023/12/09 05:09:13;;;;;;;16.77;10.17;;;;;;;4.78;100.00;97956.25;5074725;28;20209;-78
2023/12/09 05:11:39;;;;;;;16.03;10.23;;;;;;;4.82;100.00;97968.25;5074584;28;20230;-77
2023/12/09 05:14:06;;;;;;;16.07;10.83;;;;;;;4.83;100.00;97949.00;5074422;28;20588;-77
2023/12/09 05:16:34;;;;;;;18.43;10.60;;;;;;;4.84;100.00;97955.94;5074441;28;20212;-79
2023/12/09 05:19:01;;;;;;;17.53;9.80;;;;;;;4.87;100.00;97947.94;5076075;28;20328;-78
2023/12/09 05:21:27;;;;;;;16.60;9.73;;;;;;;4.86;100.00;97938.41;5078368;28;20732;-79
2023/12/09 05:23:54;;;;;;;18.07;9.17;;;;;;;4.89;100.00;97943.47;5078370;28;20210;-79
2023/12/09 05:26:22;;;;;;;14.37;8.83;;;;;;;4.93;100.00;97933.69;5076408;28;20214;-78
2023/12/09 05:28:49;;;;;;;13.13;8.80;;;;;;;4.92;100.00;97922.38;5076992;28;20213;-78
2023/12/09 05:31:16;;;;;;;16.90;9.57;;;;;;;4.95;100.00;97927.44;5076045;28;20230;-78
2023/12/09 05:33:44;;;;;;;16.10;9.30;;;;;;;4.96;100.00;97926.53;5075548;28;20302;-78
2023/12/09 05:36:10;;;;;;;16.07;9.40;;;;;;;4.94;100.00;97923.16;5076446;28;20217;-77
2023/12/09 05:38:38;;;;;;;16.30;10.53;;;;;;;4.94;100.00;97923.16;5077035;28;20224;-80
2023/12/09 05:41:05;;;;;;;18.37;10.20;;;;;;;4.91;100.00;97917.22;5075703;28;20233;-80
2023/12/09 05:43:31;;;;;;;19.27;10.77;;;;;;;4.91;100.00;97920.69;5074732;28;20214;-79
2023/12/09 05:45:57;;;;;;;14.23;9.27;;;;;;;4.90;100.00;97916.34;5076251;28;20211;-79
2023/12/09 05:48:24;;;;;;;20.13;11.13;;;;;;;4.92;100.00;97909.28;5076036;28;20205;-79
2023/12/09 05:50:52;;;;;;;17.03;9.37;;;;;;;4.92;100.00;97901.44;5075103;28;20223;-79
2023/12/09 05:53:18;;;;;;;17.47;9.97;;;;;;;4.91;100.00;97898.88;5074601;28;20584;-78
2023/12/09 05:55:45;;;;;;;19.43;9.77;;;;;;;4.92;100.00;97901.44;5074645;28;20211;-78
2023/12/09 05:58:11;;;;;;;18.67;9.67;;;;;;;4.93;100.00;97903.13;5076133;28;20230;-78
2023/12/09 06:00:38;;;;;;;12.43;8.57;;;;;;;4.95;100.00;97905.69;5078331;28;20220;-78
2023/12/09 06:03:04;;;;;;;14.20;8.93;;;;;;;4.96;100.00;97902.94;5075768;28;20237;-78
2023/12/09 06:05:31;;;;;;;11.13;7.37;;;;;;;5.02;100.00;97901.81;5073258;28;20250;-77
2023/12/09 06:07:58;;;;;;;16.43;8.03;;;;;;;5.01;100.00;97906.19;5074236;28;20201;-79
2023/12/09 06:10:25;;;;;;;15.73;7.73;;;;;;;5.01;100.00;97900.13;5074149;28;20580;-79
2023/12/09 06:12:51;;;;;;;13.17;7.03;;;;;;;5.01;100.00;97903.56;5074322;28;20237;-78
2023/12/09 06:15:18;;;;;;;12.50;6.70;;;;;;;5.00;100.00;97899.25;5073958;28;20211;-79
2023/12/09 06:17:45;;;;;;;13.57;8.00;;;;;;;5.02;100.00;97900.03;5074065;28;20226;-78
2023/12/09 06:20:12;;;;;;;12.50;7.40;;;;;;;5.00;100.00;97899.25;5074051;28;20241;-79
2023/12/09 06:22:38;;;;;;;9.63;6.93;;;;;;;5.01;100.00;97889.66;5074448;28;20252;-78
2023/12/09 06:25:08;;;;;;;12.27;6.83;;;;;;;5.07;100.00;97900.66;5074271;28;20213;-78
2023/12/09 06:27:35;;;;;;;10.57;6.43;;;;;;;5.08;100.00;97897.09;5074838;28;20206;-79
2023/12/09 06:30:01;;;;;;;11.97;6.50;;;;;;;5.08;100.00;97889.22;5074838;28;20558;-79
2023/12/09 06:32:28;;;;;;;11.37;7.33;;;;;;;5.12;100.00;97887.34;5074813;28;20243;-78
2023/12/09 06:34:54;;;;;;;11.97;6.57;;;;;;;5.11;100.00;97886.47;5072954;28;20216;-80
2023/12/09 06:37:21;;;;;;;10.17;6.23;;;;;;;5.14;100.00;97886.28;5073116;28;20215;-80
2023/12/09 06:39:47;;;;;;;11.43;6.57;;;;;;;5.16;100.00;97897.56;5073333;28;20212;-80
2023/12/09 06:42:15;;;;;;;12.20;6.43;;;;;;;5.21;100.00;97890.31;5071357;28;20282;-78
2023/12/09 06:44:42;;;;;;;9.37;6.60;;;;;;;5.22;100.00;97884.16;5072828;28;20239;-78
2023/12/09 06:47:09;;;;;;;10.83;5.70;;;;;;;5.23;100.00;97883.22;5072129;28;20215;-78
2023/12/09 06:49:36;;;;;;;7.90;5.50;;;;;;;5.25;100.00;97883.16;5077472;28;20325;-78
2023/12/09 06:52:03;;;;;;;8.80;6.00;;;;;;;5.28;100.00;97878.59;5076063;28;20228;-82
2023/12/09 06:54:29;;;;;;;8.77;5.33;;;;;;;5.31;100.00;97873.19;5073701;28;20209;-80
2023/12/09 06:56:56;;;;;;;7.63;5.17;;;;;;;5.36;100.00;97878.16;5075267;28;20289;-78
2023/12/09 06:59:24;;;;;;;8.27;5.57;;;;;;;5.33;100.00;97871.34;5074192;28;20229;-78
2023/12/09 07:01:51;;;;;;;7.83;5.33;;;;;;;5.35;100.00;97874.72;5082681;28;20370;-79
2023/12/09 07:04:18;;;;;;;10.70;5.53;;;;;;;5.39;100.00;97871.03;5082225;28;20216;-79
2023/12/09 07:06:45;;;;;;;12.23;5.63;;;;;;;5.40;100.00;97877.94;5073382;28;20362;-79
2023/12/09 07:09:12;;;;;;;9.40;4.90;;;;;;;5.42;100.00;97870.00;5077444;28;20214;-79
2023/12/09 07:11:39;;;;;;;10.63;5.03;;;;;;;5.45;100.00;97873.28;5083277;28;20237;-77
2023/12/09 07:14:06;;;;;;;9.67;5.40;;;;;;;5.44;100.00;97874.22;5085331;28;20218;-79
2023/12/09 07:16:33;;;;;;;10.43;5.20;;;;;;;5.47;100.00;97865.34;5087003;28;20211;-77
2023/12/09 07:19:00;;;;;;;8.53;4.70;;;;;;;5.49;100.00;97874.00;5085657;28;20248;-76
2023/12/09 07:21:27;;;;;;;9.20;5.00;;;;;;;5.51;100.00;97880.00;5083572;28;20234;-78
2023/12/09 07:23:53;;;;;;;10.17;5.20;;;;;;;5.52;100.00;97887.78;5078676;28;20263;-79
2023/12/09 07:26:20;;;;;;;6.80;4.40;;;;;;;5.52;100.00;97889.56;5073513;28;20206;-79
2023/12/09 07:28:46;;;;;;;6.97;4.30;;;;;;;5.51;100.00;97891.31;5073283;28;20216;-78
2023/12/09 07:31:13;;;;;;;6.87;4.20;;;;;;;5.58;100.00;97889.22;5072701;28;20231;-78
2023/12/09 07:33:42;;;;;;;6.80;4.13;;;;;;;5.59;100.00;97893.53;5072876;28;20210;-78
2023/12/09 07:36:09;;;;;;;7.50;4.13;;;;;;;5.56;100.00;97897.16;5072699;28;20313;-79
2023/12/09 07:38:35;;;;;;;6.83;4.07;;;;;;;5.55;100.00;97903.34;5072442;28;20241;-81
2023/12/09 07:41:02;;;;;;;8.83;4.20;;;;;;;5.58;100.00;97892.72;5073173;28;20671;-78
2023/12/09 07:43:29;;;;;;;6.57;3.77;;;;;;;5.62;100.00;97888.97;5072592;28;20260;-80
2023/12/09 07:45:55;;;;;;;7.57;4.20;;;;;;;5.62;100.00;97888.97;5072043;28;20217;-78
2023/12/09 07:48:22;;;;;;;6.40;3.90;;;;;;;5.69;100.00;97884.25;5073167;28;20199;-78
2023/12/09 07:50:50;;;;;;;6.73;3.73;;;;;;;5.73;100.00;97883.19;5073038;28;20215;-78
2023/12/09 07:53:16;;;;;;;5.90;3.83;;;;;;;5.69;100.00;97877.22;5073066;28;20210;-78
2023/12/09 07:55:43;;;;;;;9.70;4.13;;;;;;;5.71;100.00;97885.00;5072540;28;20214;-79
2023/12/09 07:58:09;;;;;;;7.13;3.43;;;;;;;5.71;100.00;97885.88;5072374;28;20235;-78
2023/12/09 08:00:35;;;;;;;7.13;3.47;;;;;;;5.71;100.00;97892.88;5073148;28;20210;-78
2023/12/09 08:03:06;;;;;;;8.27;3.83;;;;;;;5.74;100.00;97893.56;5072720;28;20709;-79
2023/12/09 08:05:32;;;;;;;5.07;3.57;;;;;;;5.76;100.00;97894.34;5071863;28;20214;-80
2023/12/09 08:08:01;;;;;;;4.90;3.40;;;;;;;5.77;100.00;97882.06;5072361;28;20206;-78
2023/12/09 08:10:28;;;;;;;6.37;3.17;;;;;;;5.77;100.00;97889.94;5072927;28;20573;-78
2023/12/09 08:12:54;;;;;;;4.97;3.27;;;;;;;5.79;100.00;97886.28;5072357;28;20224;-80
2023/12/09 08:15:21;;;;;;;6.00;3.70;;;;;;;5.85;100.00;97875.50;5071539;28;20218;-79
2023/12/09 08:17:48;;;;;;;4.57;3.33;;;;;;;5.84;100.00;97884.31;5071816;28;20221;-76
2023/12/09 08:20:16;;;;;;;5.37;3.30;;;;;;;5.81;100.00;97875.78;5072495;28;20222;-77
2023/12/09 08:22:42;;;;;;;4.70;2.97;;;;;;;5.82;100.00;97886.19;5072111;28;20714;-78
2023/12/09 08:25:10;;;;;;;6.30;3.40;;;;;;;5.79;100.00;97886.28;5076262;28;20218;-78
2023/12/09 08:27:38;;;;;;;7.23;3.67;;;;;;;5.75;100.00;97874.28;5077397;28;20696;-78
2023/12/09 08:30:12;;;;;;;4.87;3.20;;;;;;;5.68;100.00;97872.91;5076641;28;20232;-78
2023/12/09 08:32:39;;;;;;;5.53;3.53;;;;;;;5.67;100.00;97876.47;5076326;28;20231;-78
2023/12/09 08:35:07;;;;;;;6.50;3.40;;;;;;;5.69;100.00;97885.09;5076754;28;20741;-78
2023/12/09 08:37:33;;;;;;;6.97;3.70;;;;;;;5.70;100.00;97883.31;5076584;28;20211;-79
2023/12/09 08:40:09;;;;;;;8.40;4.00;;;;;;;5.75;100.00;97879.53;5075843;28;20316;-78
2023/12/09 08:42:38;;;;;;;6.93;3.90;;;;;;;5.87;100.00;97867.56;5076078;28;20261;-78
2023/12/09 08:45:06;;;;;;;8.53;4.63;;;;;;;6.01;100.00;97860.63;5075795;28;20218;-79
2023/12/09 08:47:32;;;;;;;8.97;4.40;;;;;;;6.14;100.00;97869.50;5076241;28;20203;-78
2023/12/09 08:49:59;;;;;;;6.07;4.57;;;;;;;6.24;100.00;97873.28;5076105;28;20216;-78
2023/12/09 08:52:25;;;;;;;5.53;4.03;;;;;;;6.33;100.00;97877.19;5076685;28;20250;-78
2023/12/09 08:54:52;;;;;;;6.47;4.00;;;;;;;6.39;100.00;97880.31;5075755;28;20221;-78
2023/12/09 08:57:18;;;;;;;6.30;4.30;;;;;;;6.46;100.00;97881.66;5074990;28;20213;-78
2023/12/09 08:59:46;;;;;;;4.80;4.00;;;;;;;6.44;100.00;97880.91;5076142;28;20238;-78
2023/12/09 09:02:12;;;;;;;8.17;4.13;;;;;;;6.46;100.00;97883.44;5077604;28;20235;-78
2023/12/09 09:04:39;;;;;;;5.60;4.03;;;;;;;6.40;100.00;97866.25;5076616;28;20211;-78
2023/12/09 09:07:06;;;;;;;7.20;4.37;;;;;;;6.43;100.00;97852.97;5077245;28;20222;-78
2023/12/09 09:09:33;;;;;;;5.60;3.97;;;;;;;6.49;100.00;97855.25;5077236;28;20210;-79
2023/12/09 09:11:59;;;;;;;6.20;4.37;;;;;;;6.51;100.00;97855.16;5076616;28;20609;-79
2023/12/09 09:14:26;;;;;;;7.80;4.30;;;;;;;6.51;100.00;97856.00;5076012;28;20219;-78
2023/12/09 09:16:53;;;;;;;6.47;4.13;;;;;;;6.54;100.00;97850.56;5078019;28;20211;-79
2023/12/09 09:19:21;;;;;;;6.33;3.67;;;;;;;6.53;100.00;97843.63;5076051;28;20234;-80
2023/12/09 09:21:47;;;;;;;5.43;4.07;;;;;;;6.56;100.00;97848.72;5076612;28;20239;-82
2023/12/09 09:24:13;;;;;;;7.17;4.33;;;;;;;6.59;100.00;97843.28;5077612;28;20210;-79
2023/12/09 09:26:40;;;;;;;9.33;4.40;;;;;;;6.60;100.00;97852.84;5076599;28;20225;-80
2023/12/09 09:29:06;;;;;;;7.13;4.20;;;;;;;6.61;100.00;97856.31;5080104;28;20211;-81
2023/12/09 09:31:33;;;;;;;6.53;3.90;;;;;;;6.60;100.00;97859.88;5077325;28;20226;-79
2023/12/09 09:34:01;;;;;;;5.93;3.83;;;;;;;6.56;100.00;97856.59;5075267;28;20222;-79
2023/12/09 09:36:27;;;;;;;5.33;3.90;;;;;;;6.60;100.00;97854.63;5075263;28;20211;-79
2023/12/09 09:38:54;;;;;;;4.53;3.70;;;;;;;6.63;100.00;97847.41;5075364;28;20238;-79
2023/12/09 09:41:24;;;;;;;5.90;4.00;;;;;;;6.64;100.00;97841.22;5075275;28;20245;-79
2023/12/09 09:44:03;;;;;;;7.30;3.70;;;;;;;6.66;100.00;97828.84;5074772;28;20211;-79
2023/12/09 09:46:30;;;;;;;5.80;3.70;;;;;;;6.67;100.00;97830.56;5074448;28;20241;-79
2023/12/09 09:48:57;;;;;;;5.97;3.37;;;;;;;6.70;100.00;97829.50;5075156;28;20215;-79
2023/12/09 09:51:30;;;;;;;5.97;3.87;;;;;;;6.72;100.00;97817.97;5075535;28;20234;-79
2023/12/09 09:54:13;;;;;;;6.77;3.80;;;;;;;6.76;100.00;97824.75;5075455;28;20205;-79
2023/12/09 09:56:39;;;;;;;6.73;3.70;;;;;;;6.77;100.00;97815.94;5074673;28;20214;-79
2023/12/09 09:59:06;;;;;;;5.53;3.90;;;;;;;6.80;100.00;97825.41;5074714;28;20231;-79
2023/12/09 10:01:34;;;;;;;4.57;3.30;;;;;;;6.84;100.00;97819.06;5075069;28;20239;-79
2023/12/09 10:04:01;;;;;;;6.93;3.77;;;;;;;6.85;100.00;97802.34;5074828;28;20245;-79
2023/12/09 10:06:30;;;;;;;5.57;3.80;;;;;;;6.87;100.00;97811.84;5074175;28;20284;-79
2023/12/09 10:08:56;;;;;;;6.77;3.70;;;;;;;6.90;100.00;97810.81;5074874;28;20204;-79
2023/12/09 10:11:23;;;;;;;5.47;3.77;;;;;;;6.91;100.00;97804.63;5078147;28;20557;-79
2023/12/09 10:13:49;;;;;;;6.63;4.03;;;;;;;6.95;100.00;97804.34;5074412;28;20238;-79
2023/12/09 10:16:16;;;;;;;7.37;4.03;;;;;;;6.94;100.00;97802.66;5074476;28;20219;-79
2023/12/09 10:18:45;;;;;;;4.87;3.60;;;;;;;6.91;100.00;97787.06;5074230;28;20230;-79
2023/12/09 10:21:12;;;;;;;5.90;3.70;;;;;;;6.98;100.00;97770.00;5075611;28;20227;-79
2023/12/09 10:23:40;;;;;;;5.10;3.70;;;;;;;7.08;100.00;97763.25;5074569;28;20211;-79
2023/12/09 10:26:06;;;;;;;6.10;4.20;;;;;;;7.06;100.00;97764.28;5074318;28;20216;-79
2023/12/09 10:28:33;;;;;;;4.97;3.70;;;;;;;7.10;100.00;97761.38;5074850;28;20207;-79
2023/12/09 10:31:01;;;;;;;5.23;3.70;;;;;;;7.14;100.00;97752.34;5074646;28;20274;-79
2023/12/09 10:33:30;;;;;;;4.53;3.47;;;;;;;7.10;100.00;97748.25;5076137;28;20211;-80
2023/12/09 10:35:57;;;;;;;6.40;3.73;;;;;;;7.09;100.00;97754.41;5075055;28;20679;-79
2023/12/09 10:38:24;;;;;;;5.67;3.90;;;;;;;7.09;100.00;97749.16;5074771;28;20211;-79
2023/12/09 10:40:53;;;;;;;7.47;3.97;;;;;;;7.08;100.00;97739.59;5073926;28;20218;-79
2023/12/09 10:43:20;;;;;;;6.70;3.60;;;;;;;7.08;100.00;97728.25;5074246;28;20642;-79
2023/12/09 10:45:47;;;;;;;6.03;3.97;;;;;;;7.16;100.00;97713.72;5073053;28;20241;-79
2023/12/09 10:48:14;;;;;;;5.80;3.87;;;;;;;7.16;100.00;97707.59;5075494;28;20704;-79
2023/12/09 10:50:40;;;;;;;7.10;4.27;;;;;;;7.17;100.00;97704.03;5075265;28;20210;-79
2023/12/09 10:53:07;;;;;;;5.23;4.00;;;;;;;7.18;100.00;97701.31;5073717;28;20207;-80
2023/12/09 10:55:34;;;;;;;5.40;4.10;;;;;;;7.23;100.00;97715.84;5072548;28;20207;-77
2023/12/09 10:58:05;;;;;;;5.17;3.70;;;;;;;7.31;100.00;97696.97;5074394;28;20207;-78
2023/12/09 11:00:33;;;;;;;4.50;3.77;;;;;;;7.38;100.00;97692.19;5073482;28;20227;-80
2023/12/09 11:03:00;;;;;;;5.47;4.00;;;;;;;7.43;100.00;97691.78;5072885;28;20235;-78
2023/12/09 11:05:27;;;;;;;6.07;4.10;;;;;;;7.54;100.00;97683.22;5073719;28;20214;-77
2023/12/09 11:07:57;;;;;;;5.97;4.37;;;;;;;7.62;100.00;97688.81;5073712;28;20211;-78
2023/12/09 11:10:24;;;;;;;9.43;4.33;;;;;;;7.57;100.00;97664.59;5073940;28;20644;-78
2023/12/09 11:12:50;;;;;;;5.10;4.17;;;;;;;7.63;100.00;97661.56;5073262;28;20234;-78
2023/12/09 11:15:22;;;;;;;5.33;3.67;;;;;;;7.67;100.00;97658.66;5071957;28;20565;-78
2023/12/09 11:17:48;;;;;;;5.93;3.90;;;;;;;7.63;100.00;97640.53;5073461;28;20223;-78
2023/12/09 11:20:17;;;;;;;5.23;3.80;;;;;;;7.62;100.00;97623.06;5072847;28;20227;-77
2023/12/09 11:22:45;;;;;;;4.80;3.73;;;;;;;7.49;100.00;97616.91;5072561;28;20229;-78
2023/12/09 11:25:20;;;;;;;5.87;3.37;;;;;;;7.46;100.00;97619.75;5073728;28;20208;-81
2023/12/09 11:27:50;;;;;;;5.20;3.50;;;;;;;7.50;100.00;97608.94;5073874;28;20214;-80